createdAt,value
2022-07-29T00:03:22.175Z,0
2022-07-29T00:08:22.095Z,0
2022-07-29T00:13:31.867Z,0
2022-07-29T00:33:32.312Z,0
2022-07-29T00:38:27.454Z,0
2022-07-29T00:43:22.482Z,0
2022-07-29T01:03:22.345Z,0
2022-07-29T01:08:22.188Z,0
2022-07-29T01:13:22.101Z,0
2022-07-29T01:18:24.223Z,0
2022-07-29T01:23:22.133Z,0
2022-07-29T01:28:25.144Z,0
2022-07-29T01:33:22.167Z,0
2022-07-29T01:38:22.156Z,0
2022-07-29T01:43:22.128Z,0
2022-07-29T01:53:23.187Z,0
2022-07-29T01:58:22.260Z,0
2022-07-29T02:03:22.234Z,0
2022-07-29T02:08:22.186Z,0
2022-07-29T02:13:25.968Z,0
2022-07-29T02:18:22.237Z,0
2022-07-29T02:23:22.106Z,0
2022-07-29T02:28:22.165Z,0
2022-07-29T02:33:22.150Z,0
2022-07-29T02:38:22.180Z,0
2022-07-29T02:48:22.147Z,0
2022-07-29T02:58:22.152Z,0
2022-07-29T03:03:22.143Z,0
2022-07-29T03:08:22.145Z,0
2022-07-29T03:13:22.214Z,0
2022-07-29T03:18:22.212Z,0
2022-07-29T03:23:25.135Z,0
2022-07-29T03:28:23.196Z,0
2022-07-29T03:33:26.264Z,0
2022-07-29T03:38:22.137Z,0
2022-07-29T03:43:22.121Z,0
2022-07-29T03:58:22.172Z,0
2022-07-29T04:03:22.326Z,0
2022-07-29T04:08:22.154Z,0
2022-07-29T04:13:22.163Z,0
2022-07-29T04:18:22.125Z,0
2022-07-29T04:23:22.140Z,265
2022-07-29T04:28:22.118Z,266
2022-07-29T04:33:25.137Z,266
2022-07-29T04:38:26.636Z,269
2022-07-29T04:43:25.171Z,268
2022-07-29T04:48:28.599Z,269
2022-07-29T04:53:25.114Z,272
2022-07-29T05:03:22.272Z,274
2022-07-29T05:08:22.196Z,274
2022-07-29T05:13:22.184Z,275
2022-07-29T05:18:25.966Z,281
2022-07-29T05:23:22.166Z,285
2022-07-29T05:28:22.156Z,283
2022-07-29T05:33:34.504Z,283
2022-07-29T05:38:22.393Z,285
2022-07-29T05:43:22.183Z,287
2022-07-29T05:53:22.153Z,295
2022-07-29T05:58:22.125Z,307
2022-07-29T06:03:22.169Z,305
2022-07-29T06:08:22.126Z,299
2022-07-29T06:13:22.159Z,304
2022-07-29T06:18:22.172Z,308
2022-07-29T06:23:22.128Z,310
2022-07-29T06:33:26.169Z,315
2022-07-29T06:38:31.891Z,315
2022-07-29T06:43:23.161Z,320
2022-07-29T06:48:22.221Z,332
2022-07-29T06:53:22.144Z,336
2022-07-29T06:58:22.178Z,337
2022-07-29T07:03:22.172Z,333
2022-07-29T07:08:26.868Z,339
2022-07-29T07:13:25.206Z,343
2022-07-29T07:18:22.199Z,345
2022-07-29T07:23:22.229Z,356
2022-07-29T07:28:25.316Z,345
2022-07-29T07:33:22.208Z,336
2022-07-29T07:38:22.329Z,339
2022-07-29T07:48:22.224Z,367
2022-07-29T07:53:22.219Z,368
2022-07-29T07:58:26.539Z,372
2022-07-29T08:03:22.229Z,379
2022-07-29T08:08:22.233Z,390
2022-07-29T08:13:22.322Z,388
2022-07-29T08:18:22.164Z,373
2022-07-29T08:23:25.510Z,376
2022-07-29T08:28:26.068Z,374
2022-07-29T08:33:22.220Z,397
2022-07-29T08:38:22.262Z,390
2022-07-29T08:48:22.299Z,408
2022-07-29T08:53:22.202Z,389
2022-07-29T08:58:25.647Z,416
2022-07-29T09:03:22.308Z,443
2022-07-29T09:08:22.278Z,454
2022-07-29T09:13:22.258Z,436
2022-07-29T09:18:30.709Z,470
2022-07-29T09:23:25.278Z,564
2022-07-29T09:28:22.239Z,465
2022-07-29T09:33:22.262Z,454
2022-07-29T09:38:22.247Z,433
2022-07-29T09:43:23.565Z,468
2022-07-29T09:48:22.213Z,685
2022-07-29T09:58:22.253Z,862
2022-07-29T10:03:22.453Z,650
2022-07-29T10:08:22.372Z,413
2022-07-29T10:13:22.300Z,475
2022-07-29T10:28:23.349Z,1227
2022-07-29T10:33:22.296Z,769
2022-07-29T10:38:25.370Z,663
2022-07-29T10:43:22.321Z,1108
2022-07-29T10:48:25.340Z,1381
2022-07-29T10:53:23.332Z,1309
2022-07-29T11:03:22.347Z,1351
2022-07-29T11:08:26.198Z,403
2022-07-29T11:13:22.297Z,362
2022-07-29T11:23:23.608Z,385
2022-07-29T11:28:25.570Z,412
2022-07-29T11:33:37.383Z,372
2022-07-29T11:38:23.379Z,411
2022-07-29T11:43:23.621Z,410
2022-07-29T11:48:28.227Z,391
2022-07-29T11:53:22.321Z,397
2022-07-29T12:03:33.181Z,380
2022-07-29T12:08:22.352Z,368
2022-07-29T12:13:37.014Z,329
2022-07-29T12:18:25.349Z,330
2022-07-29T12:23:22.329Z,344
2022-07-29T12:28:26.502Z,351
2022-07-29T12:33:22.718Z,316
2022-07-29T12:38:24.344Z,298
2022-07-29T12:43:22.430Z,301
2022-07-29T12:48:22.329Z,284
2022-07-29T12:53:22.625Z,292
2022-07-29T12:58:22.316Z,327
2022-07-29T13:03:22.322Z,312
2022-07-29T13:08:25.336Z,297
2022-07-29T13:13:22.362Z,295
2022-07-29T13:18:25.323Z,303
2022-07-29T13:23:22.406Z,285
2022-07-29T13:28:22.363Z,296
2022-07-29T13:33:22.336Z,301
2022-07-29T13:38:30.950Z,299
2022-07-29T13:43:22.398Z,298
2022-07-29T13:48:22.368Z,298
2022-07-29T13:58:22.359Z,315
2022-07-29T14:03:22.313Z,326
2022-07-29T14:08:22.314Z,356
2022-07-29T14:13:26.328Z,362
2022-07-29T14:18:22.360Z,361
2022-07-29T14:23:22.316Z,347
2022-07-29T14:28:22.904Z,326
2022-07-29T14:33:22.369Z,324
2022-07-29T14:38:26.827Z,321
2022-07-29T14:43:22.387Z,316
2022-07-29T14:48:22.372Z,306
2022-07-29T14:53:22.382Z,316
2022-07-29T14:58:22.334Z,318
2022-07-29T15:03:25.487Z,308
2022-07-29T15:08:22.362Z,319
2022-07-29T15:13:22.403Z,321
2022-07-29T15:18:25.903Z,323
2022-07-29T15:23:22.387Z,307
2022-07-29T15:28:22.362Z,300
2022-07-29T15:33:22.390Z,285
2022-07-29T15:38:28.748Z,287
2022-07-29T15:43:24.223Z,299
2022-07-29T15:48:22.363Z,297
2022-07-29T15:53:22.390Z,299
2022-07-29T15:58:22.383Z,294
2022-07-29T16:03:22.376Z,277
2022-07-29T16:08:23.800Z,278
2022-07-29T16:13:22.398Z,276
2022-07-29T16:18:29.982Z,278
2022-07-29T16:23:22.375Z,275
2022-07-29T16:28:22.367Z,266
2022-07-29T16:33:22.409Z,267
2022-07-29T16:38:22.541Z,270
2022-07-29T16:43:22.441Z,270
2022-07-29T16:48:25.449Z,274
2022-07-29T16:53:23.196Z,280
2022-07-29T16:58:25.455Z,281
2022-07-29T17:03:22.404Z,276
2022-07-29T17:08:27.233Z,273
2022-07-29T17:13:22.502Z,272
2022-07-29T17:18:22.510Z,271
2022-07-29T17:23:22.406Z,270
2022-07-29T17:28:22.390Z,269
2022-07-29T17:33:22.485Z,270
2022-07-29T17:38:22.488Z,270
2022-07-29T17:43:22.699Z,267
2022-07-29T17:48:25.625Z,268
2022-07-29T17:53:22.448Z,0
2022-07-29T17:58:24.190Z,0
2022-07-29T18:03:22.550Z,265
2022-07-29T18:08:22.443Z,0
2022-07-29T18:13:22.462Z,0
2022-07-29T18:18:22.453Z,0
2022-07-29T18:23:22.496Z,0
2022-07-29T18:28:22.447Z,0
2022-07-29T18:33:23.526Z,0
2022-07-29T18:38:22.493Z,0
2022-07-29T18:43:22.476Z,0
2022-07-29T18:48:27.850Z,0
2022-07-29T18:58:22.462Z,0
2022-07-29T19:03:28.240Z,0
2022-07-29T19:08:22.465Z,0
2022-07-29T19:13:22.439Z,0
2022-07-29T19:18:22.480Z,0
2022-07-29T19:23:23.524Z,0
2022-07-29T19:28:22.484Z,0
2022-07-29T19:33:22.474Z,0
2022-07-29T19:38:22.667Z,0
2022-07-29T19:43:50.129Z,0
2022-07-29T19:48:25.808Z,0
2022-07-29T19:53:27.528Z,0
2022-07-29T19:58:25.958Z,0
2022-07-29T20:03:22.519Z,0
2022-07-29T20:08:22.456Z,0
2022-07-29T20:13:22.473Z,0
2022-07-29T20:18:22.544Z,0
2022-07-29T20:33:22.492Z,0
2022-07-29T20:38:22.689Z,0
2022-07-29T20:43:22.540Z,0
2022-07-29T20:48:22.487Z,0
2022-07-29T20:53:22.501Z,0
2022-07-29T20:58:25.523Z,0
2022-07-29T21:08:22.500Z,0
2022-07-29T21:13:22.481Z,0
2022-07-29T21:18:22.488Z,0
2022-07-29T21:23:22.547Z,0
2022-07-29T21:28:22.518Z,0
2022-07-29T21:33:22.565Z,0
2022-07-29T21:38:22.527Z,0
2022-07-29T21:43:22.558Z,0
2022-07-29T21:48:22.595Z,0
2022-07-29T21:53:24.320Z,0
2022-07-29T21:58:27.303Z,0
2022-07-29T22:03:22.512Z,0
2022-07-29T22:08:22.486Z,0
2022-07-29T22:13:22.672Z,0
2022-07-29T22:18:22.633Z,0
2022-07-29T22:23:22.568Z,0
2022-07-29T22:28:22.603Z,0
2022-07-29T22:33:22.605Z,0
2022-07-29T22:38:22.519Z,0
2022-07-29T22:43:22.527Z,0
2022-07-29T22:53:22.585Z,0
2022-07-29T22:58:22.554Z,0
2022-07-29T23:03:22.576Z,0
2022-07-29T23:13:22.532Z,0
2022-07-29T23:18:23.554Z,0
2022-07-29T23:28:22.579Z,0
2022-07-29T23:33:24.273Z,0
2022-07-29T23:38:23.409Z,0
2022-07-29T23:43:22.525Z,0
2022-07-29T23:48:22.627Z,0
2022-07-29T23:53:22.546Z,0
2022-07-29T23:58:22.556Z,0
